Time;durP1;ratioP1;P1;durP2;ratioP2;P2;SDS_P1;SDS_P2;PMS_P1;PMS_P2;Temp;Humidity;BMP_temperature;BMP_pressure;BME280_temperature;BME280_humidity;BME280_pressure;Samples;Min_cycle;Max_cycle;Signal;HPM_P1;HPM_P2
2022/01/27 00:01:06;;;;;;;0.30;0.30;;;;;;;8.14;60.97;102763.00;5045849;28;20033;-88
2022/01/27 00:03:44;;;;;;;1.20;1.20;;;;;;;8.21;60.34;102758.75;5042652;28;20025;-89
2022/01/27 00:06:12;;;;;;;0.30;0.30;;;;;;;8.19;60.63;102755.19;5045792;28;20127;-88
2022/01/27 00:08:46;;;;;;;0.20;0.20;;;;;;;8.28;60.09;102743.94;5047637;28;20021;-90
2022/01/27 00:11:15;;;;;;;0.20;0.20;;;;;;;8.12;60.61;102743.59;5047141;28;20468;-90
2022/01/27 00:13:46;;;;;;;0.20;0.20;;;;;;;8.20;60.73;102749.94;5045910;28;20464;-86
2022/01/27 00:16:18;;;;;;;0.35;0.35;;;;;;;8.25;60.75;102731.56;5046164;28;20040;-90
2022/01/27 00:18:47;;;;;;;0.15;0.15;;;;;;;8.20;61.07;102733.19;5044326;28;20033;-87
2022/01/27 00:21:17;;;;;;;6.30;1.23;;;;;;;8.19;60.75;102734.06;5045665;28;20094;-90
2022/01/27 00:23:45;;;;;;;0.98;0.98;;;;;;;8.20;60.51;102730.53;5040523;28;20424;-90
2022/01/27 00:26:13;;;;;;;0.10;0.10;;;;;;;8.19;60.45;102731.44;5046527;28;20037;-90
2022/01/27 00:28:41;;;;;;;0.10;0.10;;;;;;;8.09;61.04;102728.59;5046064;28;20083;-87
2022/01/27 00:31:08;;;;;;;1.45;0.88;;;;;;;8.16;61.03;102728.72;5047498;28;20056;-88
2022/01/27 00:33:35;;;;;;;0.73;0.73;;;;;;;8.19;60.83;102726.16;5047519;28;20025;-85
2022/01/27 00:36:02;;;;;;;0.10;0.10;;;;;;;8.17;61.19;102727.84;5042818;28;20041;-88
2022/01/27 00:38:30;;;;;;;0.10;0.10;;;;;;;8.19;60.52;102728.78;5045167;28;20029;-89
2022/01/27 00:40:56;;;;;;;0.35;0.35;;;;;;;8.11;60.71;102723.31;5045932;28;20048;-89
2022/01/27 00:43:23;;;;;;;0.98;0.98;;;;;;;8.18;61.11;102729.66;5044536;28;20061;-87
2022/01/27 00:45:49;;;;;;;0.35;0.35;;;;;;;8.18;60.76;102709.41;5044519;28;20033;-91
2022/01/27 00:48:17;;;;;;;1.85;1.75;;;;;;;8.28;60.88;102715.75;5042170;28;20450;-90
2022/01/27 00:50:48;;;;;;;0.10;0.10;;;;;;;8.33;60.99;102714.09;5041714;28;20029;-90
2022/01/27 00:53:27;;;;;;;0.10;0.10;;;;;;;8.25;61.38;102727.16;5043233;28;20037;-88
2022/01/27 00:55:56;;;;;;;0.73;0.73;;;;;;;8.33;61.02;102716.72;5033372;28;20045;-85
2022/01/27 00:58:42;;;;;;;0.40;0.40;;;;;;;8.30;61.16;102719.31;5032098;28;20044;-90
2022/01/27 01:01:12;;;;;;;0.32;0.32;;;;;;;8.29;61.22;102719.28;5033651;28;20041;-90
2022/01/27 01:03:42;;;;;;;0.10;0.10;;;;;;;8.35;60.75;102707.09;5031739;28;20030;-89
2022/01/27 01:06:22;;;;;;;0.20;0.20;;;;;;;8.38;60.46;102717.72;5032469;28;20117;-89
2022/01/27 01:09:52;;;;;;;0.28;0.28;;;;;;;8.35;60.44;102711.47;5026887;28;20553;-89
2022/01/27 01:14:37;;;;;;;0.35;0.35;;;;;;;8.48;59.47;102684.47;5030718;28;20065;-89
2022/01/27 01:17:28;;;;;;;0.68;0.68;;;;;;;8.40;59.42;102672.84;5029537;28;20108;-91
2022/01/27 01:20:17;;;;;;;0.52;0.52;;;;;;;8.56;59.01;102674.03;5033762;28;20041;-87
2022/01/27 01:31:09;;;;;;;0.10;0.10;;;;;;;8.65;57.85;102676.84;5033108;28;20037;-90
2022/01/27 01:33:38;;;;;;;0.52;0.52;;;;;;;8.63;57.98;102669.75;5033368;28;20507;-89
2022/01/27 01:36:15;;;;;;;0.25;0.25;;;;;;;8.69;58.07;102649.59;5032671;28;20168;-87
2022/01/27 01:38:50;;;;;;;0.10;0.10;;;;;;;8.65;58.15;102653.06;5031491;28;20030;-88
2022/01/27 01:41:30;;;;;;;0.15;0.15;;;;;;;8.64;58.29;102638.06;5028623;28;20033;-90
2022/01/27 01:44:06;;;;;;;1.45;0.98;;;;;;;8.56;58.18;102659.09;5033330;28;20431;-85
2022/01/27 01:46:33;;;;;;;0.22;0.22;;;;;;;8.53;58.12;102640.53;5029653;28;20067;-84
2022/01/27 01:48:59;;;;;;;0.38;0.38;;;;;;;8.48;58.69;102636.03;5030903;28;20546;-89
2022/01/27 01:51:29;;;;;;;0.77;0.77;;;;;;;8.65;58.47;102637.22;5032646;28;20496;-91
2022/01/27 01:53:56;;;;;;;0.10;0.10;;;;;;;8.55;58.02;102624.72;5032414;28;20033;-89
2022/01/27 01:56:23;;;;;;;0.20;0.20;;;;;;;8.59;58.68;102623.91;5030784;28;20033;-91
2022/01/27 01:58:50;;;;;;;0.55;0.55;;;;;;;8.47;58.78;102635.13;5030134;28;20030;-85
2022/01/27 02:01:21;;;;;;;1.63;0.77;;;;;;;8.57;58.94;102645.03;5027278;28;20038;-85
2022/01/27 02:03:48;;;;;;;0.30;0.30;;;;;;;8.56;58.79;102626.47;5027397;28;20512;-87
2022/01/27 02:06:28;;;;;;;0.45;0.45;;;;;;;8.50;59.57;102613.16;5026763;28;20037;-88
2022/01/27 02:20:07;;;;;;;1.20;1.10;;;;;;;8.08;61.13;102604.47;5052040;28;20052;-88
2022/01/27 02:22:34;;;;;;;0.10;0.10;;;;;;;8.06;61.08;102615.03;5052455;28;20029;-89
2022/01/27 02:25:00;;;;;;;0.85;0.35;;;;;;;8.04;61.12;102618.50;5053166;28;20072;-87
2022/01/27 02:27:26;;;;;;;0.17;0.17;;;;;;;7.98;61.61;102621.88;5055310;28;20036;-89
2022/01/27 02:29:53;;;;;;;0.10;0.10;;;;;;;7.78;62.52;102625.00;5049501;28;20419;-90
2022/01/27 02:32:22;;;;;;;0.20;0.20;;;;;;;7.99;61.74;102617.50;5052193;28;20441;-88
2022/01/27 02:34:48;;;;;;;0.20;0.20;;;;;;;7.97;61.30;102627.16;5054637;28;20021;-90
2022/01/27 02:37:18;;;;;;;0.32;0.32;;;;;;;7.96;61.70;102634.16;5050606;28;20419;-87
2022/01/27 02:39:45;;;;;;;1.40;1.30;;;;;;;7.93;62.08;102620.91;5048742;28;20031;-92
2022/01/27 02:45:04;;;;;;;0.20;0.20;;;;;;;7.96;62.60;102628.88;5080481;28;20509;-88
2022/01/27 02:47:30;;;;;;;0.10;0.10;;;;;;;7.89;62.27;102621.72;5066813;28;20480;-90
2022/01/27 02:49:56;;;;;;;0.10;0.10;;;;;;;7.92;62.37;102621.78;5066082;28;20039;-87
2022/01/27 02:52:23;;;;;;;0.10;0.10;;;;;;;7.94;62.79;102622.69;5056578;28;20033;-89
2022/01/27 02:54:49;;;;;;;0.10;0.10;;;;;;;7.92;62.83;102611.22;5040171;28;20484;-91
2022/01/27 02:57:16;;;;;;;0.20;0.20;;;;;;;7.92;63.21;102605.94;5045789;28;20032;-90
2022/01/27 02:59:42;;;;;;;0.10;0.10;;;;;;;8.00;62.23;102588.50;5042368;28;20044;-88
2022/01/27 03:02:08;;;;;;;0.50;0.50;;;;;;;8.00;62.54;102595.50;5038213;28;20040;-87
2022/01/27 03:04:35;;;;;;;5.25;1.13;;;;;;;8.00;62.98;102591.16;5043543;28;20068;-90
2022/01/27 03:07:06;;;;;;;0.13;0.13;;;;;;;8.05;62.76;102568.34;5046841;28;20056;-88
2022/01/27 03:09:34;;;;;;;0.10;0.10;;;;;;;7.99;62.58;102556.78;5043281;28;20037;-85
2022/01/27 03:14:46;;;;;;;1.17;1.10;;;;;;;7.96;63.41;102543.53;5080718;27;20823;-89
2022/01/27 03:17:12;;;;;;;1.25;1.25;;;;;;;7.89;62.94;102547.81;5065559;28;20138;-89
2022/01/27 03:19:39;;;;;;;1.17;1.17;;;;;;;7.85;63.47;102557.44;5063304;28;20537;-88
2022/01/27 03:22:06;;;;;;;0.10;0.10;;;;;;;7.80;63.76;102535.34;5057742;28;20542;-90
2022/01/27 03:24:33;;;;;;;0.98;0.98;;;;;;;7.83;63.77;102531.88;5047286;28;20087;-88
2022/01/27 03:27:00;;;;;;;0.30;0.30;;;;;;;7.92;63.16;102537.31;5047651;28;20464;-89
2022/01/27 03:29:27;;;;;;;0.30;0.30;;;;;;;7.79;63.84;102541.47;5037086;28;21236;-89
2022/01/27 03:31:54;;;;;;;0.73;0.73;;;;;;;7.86;63.75;102531.91;5048989;28;20060;-85
2022/01/27 03:34:21;;;;;;;0.55;0.55;;;;;;;7.92;63.54;102532.94;5048601;28;20424;-88
2022/01/27 03:36:47;;;;;;;0.10;0.10;;;;;;;7.90;63.50;102531.09;5048653;28;20041;-86
2022/01/27 03:39:19;;;;;;;0.55;0.55;;;;;;;7.90;63.04;102531.09;5042033;28;20420;-88
2022/01/27 03:41:50;;;;;;;0.75;0.70;;;;;;;7.76;63.18;102518.56;5042428;28;20037;-90
2022/01/27 03:44:18;;;;;;;0.40;0.40;;;;;;;7.75;64.00;102513.25;5039814;28;20125;-90
2022/01/27 03:46:44;;;;;;;2.20;1.25;;;;;;;7.72;63.70;102514.06;5044981;28;20036;-87
2022/01/27 03:49:11;;;;;;;1.00;1.00;;;;;;;7.76;63.83;102515.03;5047795;28;20439;-87
2022/01/27 03:51:37;;;;;;;0.30;0.30;;;;;;;7.77;63.78;102512.41;5036855;28;20030;-89
2022/01/27 03:54:03;;;;;;;0.20;0.20;;;;;;;7.75;63.27;102498.31;5037918;28;20095;-89
2022/01/27 03:56:30;;;;;;;0.10;0.10;;;;;;;7.79;63.21;102480.78;5046837;28;20025;-88
2022/01/27 03:58:56;;;;;;;0.73;0.60;;;;;;;7.60;64.54;102487.47;5043970;28;20099;-86
2022/01/27 04:01:22;;;;;;;1.40;1.30;;;;;;;7.64;64.20;102486.69;5048196;28;20032;-88
2022/01/27 04:03:48;;;;;;;0.32;0.32;;;;;;;7.57;64.10;102482.13;5048539;28;20075;-89
2022/01/27 04:06:20;;;;;;;0.10;0.10;;;;;;;7.66;63.97;102486.69;5045472;28;20033;-86
2022/01/27 04:08:48;;;;;;;0.30;0.30;;;;;;;7.60;64.21;102482.19;5045701;28;20029;-85
2022/01/27 04:11:14;;;;;;;4.07;2.65;;;;;;;7.65;64.42;102484.91;5044833;28;20538;-86
2022/01/27 04:13:40;;;;;;;0.20;0.20;;;;;;;7.62;64.64;102480.47;5047854;28;20033;-87
2022/01/27 04:16:06;;;;;;;0.32;0.32;;;;;;;7.73;64.60;102478.91;5048734;28;20037;-90
2022/01/27 04:18:32;;;;;;;0.10;0.10;;;;;;;7.73;64.63;102478.91;5048362;28;20044;-90
2022/01/27 04:20:59;;;;;;;0.38;0.38;;;;;;;7.77;64.67;102480.75;5034897;28;20420;-85
2022/01/27 04:23:25;;;;;;;0.15;0.15;;;;;;;7.78;64.25;102482.53;5042650;28;20060;-87
2022/01/27 04:25:51;;;;;;;0.60;0.60;;;;;;;7.87;64.39;102473.88;5034340;28;20048;-88
2022/01/27 04:28:24;;;;;;;0.10;0.10;;;;;;;7.88;64.49;102466.88;5034138;28;20428;-86
2022/01/27 04:30:53;;;;;;;0.30;0.30;;;;;;;7.85;65.11;102461.53;5027988;28;20103;-91
2022/01/27 04:33:23;;;;;;;0.32;0.32;;;;;;;7.86;64.91;102464.22;5031292;28;20030;-88
2022/01/27 04:35:50;;;;;;;0.45;0.35;;;;;;;8.02;64.85;102462.69;5019237;28;20076;-89
2022/01/27 04:38:22;;;;;;;2.90;2.75;;;;;;;8.07;65.04;102455.78;5027933;28;20030;-88
2022/01/27 04:40:56;;;;;;;0.13;0.13;;;;;;;8.04;65.06;102457.47;5024639;28;20109;-93
2022/01/27 04:43:33;;;;;;;0.30;0.30;;;;;;;8.08;65.12;102448.72;5033164;28;20498;-91
2022/01/27 04:46:11;;;;;;;0.10;0.10;;;;;;;8.05;65.52;102454.84;5034015;28;20044;-90
2022/01/27 04:48:43;;;;;;;0.10;0.10;;;;;;;8.20;65.30;102432.16;5033750;28;20103;-89
2022/01/27 04:51:13;;;;;;;0.28;0.28;;;;;;;8.33;64.91;102420.94;5031632;28;20358;-90
2022/01/27 04:53:47;;;;;;;0.10;0.10;;;;;;;8.38;65.22;102435.09;5031181;28;20153;-86
2022/01/27 04:56:14;;;;;;;3.10;1.63;;;;;;;8.32;65.60;102437.63;5029519;28;20041;-88
2022/01/27 04:58:44;;;;;;;1.15;0.88;;;;;;;8.52;64.74;102440.63;5030847;28;20036;-90
2022/01/27 05:01:10;;;;;;;0.10;0.10;;;;;;;8.35;65.63;102431.50;5031790;28;20137;-84
2022/01/27 05:03:43;;;;;;;0.52;0.52;;;;;;;8.48;65.02;102436.16;5033953;28;20515;-90
2022/01/27 05:06:10;;;;;;;0.10;0.10;;;;;;;8.66;64.39;102438.19;5031522;28;20536;-91
2022/01/27 05:08:36;;;;;;;0.10;0.10;;;;;;;8.69;64.40;102432.03;5034371;28;20087;-92
2022/01/27 05:14:04;;;;;;;0.00;0.00;;;;;;;8.71;64.45;102419.72;5039189;28;20186;-91
2022/01/27 05:16:30;;;;;;;0.40;0.40;;;;;;;8.80;64.57;102434.81;5046328;28;20427;-90
2022/01/27 05:18:56;;;;;;;0.20;0.20;;;;;;;8.74;64.91;102425.94;5040612;28;20121;-90
2022/01/27 05:21:23;;;;;;;3.75;2.85;;;;;;;8.80;64.60;102432.16;5042627;28;20048;-92
2022/01/27 05:23:49;;;;;;;0.95;0.90;;;;;;;8.81;64.45;102439.22;5045479;28;20023;-91
2022/01/27 05:26:16;;;;;;;0.75;0.75;;;;;;;8.81;64.77;102421.63;5047071;28;20114;-90
2022/01/27 05:28:42;;;;;;;0.47;0.47;;;;;;;8.92;64.40;102427.03;5045562;28;20045;-91
2022/01/27 05:31:08;;;;;;;0.75;0.68;;;;;;;8.97;64.60;102417.44;5045884;28;20032;-87
2022/01/27 05:33:34;;;;;;;0.20;0.20;;;;;;;9.00;64.33;102422.75;5055072;28;20045;-89
2022/01/27 05:36:01;;;;;;;0.20;0.20;;;;;;;9.05;64.25;102407.81;5050257;28;20045;-90
2022/01/27 05:38:27;;;;;;;0.10;0.10;;;;;;;9.20;64.11;102416.81;5043871;28;20112;-88
2022/01/27 05:40:53;;;;;;;0.10;0.10;;;;;;;9.20;63.92;102415.03;5037472;28;20075;-92
2022/01/27 05:43:19;;;;;;;0.28;0.28;;;;;;;9.23;64.28;102424.75;5045313;28;20045;-91
2022/01/27 05:45:45;;;;;;;0.10;0.10;;;;;;;9.23;64.10;102411.53;5038417;28;20041;-92
2022/01/27 05:48:11;;;;;;;2.65;2.17;;;;;;;9.22;64.38;102415.03;5041750;28;20455;-91
2022/01/27 05:50:38;;;;;;;0.10;0.10;;;;;;;9.32;63.90;102398.41;5047569;28;20083;-87
2022/01/27 05:53:04;;;;;;;0.08;0.08;;;;;;;9.36;63.74;102389.63;5039304;28;20092;-89
2022/01/27 05:55:30;;;;;;;0.10;0.10;;;;;;;9.37;63.91;102383.47;5043728;28;20029;-90
2022/01/27 05:57:57;;;;;;;0.20;0.20;;;;;;;9.45;63.65;102382.66;5044899;28;20537;-88
2022/01/27 06:00:23;;;;;;;0.28;0.28;;;;;;;9.57;63.48;102388.06;5043791;28;20064;-89
2022/01/27 06:02:49;;;;;;;0.15;0.15;;;;;;;9.64;63.17;102384.59;5043142;28;20069;-90
2022/01/27 06:05:15;;;;;;;0.10;0.10;;;;;;;9.62;63.34;102374.84;5039818;28;20040;-87
2022/01/27 06:07:41;;;;;;;0.30;0.30;;;;;;;9.58;63.62;102366.00;5040213;28;20443;-89
2022/01/27 06:10:08;;;;;;;0.32;0.32;;;;;;;9.50;63.79;102373.00;5039691;28;20496;-88
2022/01/27 06:12:43;;;;;;;0.05;0.05;;;;;;;9.64;63.51;102360.75;5047731;28;20037;-89
2022/01/27 06:15:09;;;;;;;0.17;0.17;;;;;;;9.68;63.35;102367.88;5044092;28;20029;-89
2022/01/27 06:17:36;;;;;;;0.47;0.45;;;;;;;9.55;63.85;102371.28;5035713;28;20036;-88
2022/01/27 06:20:03;;;;;;;0.17;0.17;;;;;;;9.69;63.56;102366.09;5048462;28;20021;-89
2022/01/27 06:22:29;;;;;;;0.73;0.73;;;;;;;9.78;63.14;102367.94;5037543;28;20037;-89
2022/01/27 06:24:55;;;;;;;0.20;0.20;;;;;;;9.71;63.60;102359.94;5027565;28;20078;-88
2022/01/27 06:27:21;;;;;;;2.35;1.85;;;;;;;9.83;63.20;102368.84;5032678;28;20038;-89
2022/01/27 06:29:47;;;;;;;0.10;0.10;;;;;;;9.74;63.39;102363.50;5028837;28;20029;-89
2022/01/27 06:32:13;;;;;;;3.63;2.40;;;;;;;9.62;63.72;102370.47;5024098;28;20091;-89
2022/01/27 06:34:39;;;;;;;0.52;0.52;;;;;;;9.76;63.74;102354.69;5024679;28;20062;-90
2022/01/27 06:37:06;;;;;;;0.00;0.00;;;;;;;9.79;63.66;102345.91;5026547;28;20099;-89
2022/01/27 06:39:32;;;;;;;0.40;0.40;;;;;;;9.86;63.44;102355.66;5032195;28;20026;-89
2022/01/27 06:41:58;;;;;;;0.05;0.05;;;;;;;9.72;63.88;102347.63;5031025;28;20056;-89
2022/01/27 06:44:24;;;;;;;0.10;0.10;;;;;;;9.77;63.78;102355.56;5028269;28;20084;-91
2022/01/27 06:46:50;;;;;;;0.10;0.10;;;;;;;9.93;63.47;102357.47;5029752;28;20083;-89
2022/01/27 06:49:17;;;;;;;0.10;0.10;;;;;;;9.84;64.01;102368.00;5005466;28;20084;-89
2022/01/27 06:51:45;;;;;;;0.10;0.10;;;;;;;9.87;64.21;102370.69;5024661;28;20065;-89
2022/01/27 06:54:11;;;;;;;0.10;0.10;;;;;;;9.94;63.72;102367.16;5031744;28;20451;-88
2022/01/27 06:56:39;;;;;;;0.10;0.10;;;;;;;9.75;64.86;102366.16;5024975;28;20029;-90
2022/01/27 06:59:05;;;;;;;0.10;0.10;;;;;;;9.87;64.87;102362.72;5022979;28;20025;-93
2022/01/27 07:01:31;;;;;;;4.75;1.75;;;;;;;9.78;65.36;102376.78;5023359;28;20041;-94
2022/01/27 07:03:58;;;;;;;0.90;0.90;;;;;;;9.71;65.78;102365.25;5027744;28;20084;-92
2022/01/27 07:06:24;;;;;;;0.10;0.10;;;;;;;9.69;66.29;102366.09;5029499;28;20083;-88
2022/01/27 07:08:50;;;;;;;0.80;0.80;;;;;;;9.66;66.54;102374.03;5035107;28;20037;-89
2022/01/27 07:11:16;;;;;;;2.45;1.15;;;;;;;9.59;66.86;102372.19;5035090;28;20025;-87
2022/01/27 07:13:42;;;;;;;0.10;0.10;;;;;;;9.55;67.63;102373.94;5034590;28;20046;-88
2022/01/27 07:16:09;;;;;;;0.10;0.10;;;;;;;9.43;68.25;102381.75;5017045;28;20052;-86
2022/01/27 07:18:36;;;;;;;0.00;0.00;;;;;;;9.44;68.22;102373.81;5034000;28;20029;-86
2022/01/27 07:21:04;;;;;;;0.10;0.10;;;;;;;9.32;68.84;102379.00;5035024;28;20044;-85
2022/01/27 07:23:30;;;;;;;0.03;0.03;;;;;;;9.31;69.19;102386.06;5034782;28;20048;-84
2022/01/27 07:25:56;;;;;;;0.08;0.08;;;;;;;9.29;69.05;102387.78;5034868;28;20029;-84
2022/01/27 07:28:23;;;;;;;0.85;0.85;;;;;;;9.29;69.60;102392.22;5034266;28;20032;-84
2022/01/27 07:30:49;;;;;;;0.52;0.52;;;;;;;9.21;70.18;102389.50;5033994;28;20476;-84
2022/01/27 07:33:15;;;;;;;1.80;1.65;;;;;;;9.27;69.73;102384.25;5034013;28;20098;-84
2022/01/27 07:35:42;;;;;;;0.10;0.10;;;;;;;9.31;70.00;102387.78;5032490;28;20370;-83
2022/01/27 07:38:08;;;;;;;0.10;0.10;;;;;;;9.34;69.96;102388.72;5033794;28;20439;-82
2022/01/27 07:40:35;;;;;;;0.10;0.10;;;;;;;9.33;70.19;102380.78;5033654;28;20113;-84
2022/01/27 07:43:01;;;;;;;0.17;0.17;;;;;;;9.33;70.04;102394.91;5031280;28;20033;-84
2022/01/27 07:45:27;;;;;;;0.10;0.10;;;;;;;9.28;70.10;102393.94;5029607;28;20064;-84
2022/01/27 07:47:53;;;;;;;1.48;1.40;;;;;;;9.30;70.48;102389.56;5030673;28;20048;-83
2022/01/27 07:50:21;;;;;;;0.20;0.20;;;;;;;9.28;70.65;102393.06;5033572;28;20114;-84
2022/01/27 07:52:47;;;;;;;0.10;0.10;;;;;;;9.26;70.79;102400.09;5033982;28;20061;-84
2022/01/27 07:55:14;;;;;;;0.10;0.10;;;;;;;9.34;69.96;102399.31;5033630;28;20030;-84
2022/01/27 07:57:40;;;;;;;0.32;0.32;;;;;;;9.33;70.86;102407.22;5033838;28;20091;-83
2022/01/27 08:00:09;;;;;;;0.10;0.10;;;;;;;9.37;70.50;102395.78;5016265;28;20157;-85
2022/01/27 08:02:35;;;;;;;0.10;0.10;;;;;;;9.40;70.74;102395.84;5014244;28;20400;-85
2022/01/27 08:05:02;;;;;;;0.00;0.00;;;;;;;9.40;70.59;102395.84;5033884;28;20033;-85
2022/01/27 08:07:28;;;;;;;0.05;0.05;;;;;;;9.43;70.73;102405.56;5033939;28;20071;-84
2022/01/27 08:09:54;;;;;;;0.10;0.10;;;;;;;9.32;71.93;102406.34;5033811;28;20034;-81
2022/01/27 08:12:20;;;;;;;0.65;0.65;;;;;;;9.41;71.24;102402.00;5033672;28;20484;-81
2022/01/27 08:14:46;;;;;;;1.23;1.08;;;;;;;9.34;71.82;102407.22;5033816;28;20037;-83
2022/01/27 08:17:13;;;;;;;1.00;1.00;;;;;;;9.56;70.80;102399.53;5026233;28;20079;-87
2022/01/27 08:19:40;;;;;;;0.22;0.22;;;;;;;9.57;70.53;102398.66;5032201;28;20498;-87
2022/01/27 08:22:07;;;;;;;0.10;0.10;;;;;;;9.51;71.14;102419.78;5031136;28;20097;-88
2022/01/27 08:24:34;;;;;;;1.13;0.80;;;;;;;9.39;71.86;102402.91;5031363;28;20396;-87
2022/01/27 08:27:04;;;;;;;0.00;0.00;;;;;;;9.47;71.69;102402.06;5027997;28;20934;-89
2022/01/27 08:29:37;;;;;;;0.20;0.20;;;;;;;9.47;71.82;102396.78;5028537;28;20033;-88
2022/01/27 08:32:05;;;;;;;0.08;0.08;;;;;;;9.54;71.92;102398.63;5029003;28;20068;-87
2022/01/27 08:34:36;;;;;;;0.10;0.10;;;;;;;9.55;71.85;102403.03;5029596;28;20034;-88
2022/01/27 08:45:01;;;;;;;0.10;0.10;;;;;;;9.60;71.78;102385.44;4994125;23;20051;-82
2022/01/27 08:47:27;;;;;;;0.10;0.10;;;;;;;9.55;72.21;102385.38;4954330;28;20035;-81
2022/01/27 08:49:54;;;;;;;0.10;0.10;;;;;;;9.64;71.45;102387.22;4954020;28;20047;-86
2022/01/27 08:52:20;;;;;;;0.20;0.20;;;;;;;9.57;72.24;102403.94;4959615;28;20478;-87
2022/01/27 08:54:46;;;;;;;0.50;0.50;;;;;;;9.62;71.94;102385.44;4973629;28;20118;-81
2022/01/27 08:57:12;;;;;;;0.10;0.10;;;;;;;9.60;72.10;102393.38;4972019;28;20037;-82
2022/01/27 08:59:38;;;;;;;0.10;0.10;;;;;;;9.66;71.75;102405.78;4969833;28;20035;-81
2022/01/27 09:02:04;;;;;;;0.73;0.73;;;;;;;9.50;72.67;102397.69;4974300;28;20501;-81
2022/01/27 09:04:31;;;;;;;0.10;0.10;;;;;;;9.66;71.89;102393.44;4973598;28;20046;-81
2022/01/27 09:06:57;;;;;;;0.30;0.30;;;;;;;9.58;72.38;102400.41;4973194;28;20445;-82
2022/01/27 09:09:23;;;;;;;0.10;0.10;;;;;;;9.65;72.30;102404.88;4970010;28;20027;-81
2022/01/27 09:11:49;;;;;;;0.50;0.47;;;;;;;9.66;72.44;102403.16;4968631;28;20066;-81
2022/01/27 09:14:16;;;;;;;0.73;0.73;;;;;;;9.65;72.36;102402.25;4970393;28;20467;-81
2022/01/27 09:16:43;;;;;;;0.10;0.10;;;;;;;9.74;71.88;102397.91;4971611;28;20441;-82
2022/01/27 09:19:09;;;;;;;0.10;0.10;;;;;;;9.77;71.99;102397.94;4955887;28;20030;-82
2022/01/27 09:21:43;;;;;;;0.10;0.10;;;;;;;9.79;71.82;102388.25;4972533;28;20090;-81
2022/01/27 09:24:18;;;;;;;2.38;1.73;;;;;;;9.78;71.83;102394.41;4967134;28;20037;-83
2022/01/27 09:29:31;;;;;;;1.25;0.68;;;;;;;9.84;71.91;102382.13;5109872;27;20396;-83
2022/01/27 09:31:59;;;;;;;0.68;0.68;;;;;;;9.85;71.98;102385.66;5110466;28;20054;-82
2022/01/27 09:34:25;;;;;;;3.00;0.85;;;;;;;9.86;71.81;102384.78;5099529;28;20032;-81
2022/01/27 09:36:52;;;;;;;0.10;0.10;;;;;;;9.98;71.52;102379.56;5089714;28;20033;-83
2022/01/27 09:39:20;;;;;;;1.80;1.65;;;;;;;9.91;71.83;102385.69;5089870;28;20055;-85
2022/01/27 09:41:49;;;;;;;1.35;1.35;;;;;;;9.93;71.63;102393.66;5089688;28;20028;-83
2022/01/27 09:44:16;;;;;;;0.00;0.00;;;;;;;9.98;71.70;102381.31;5094381;28;20119;-83
2022/01/27 09:46:45;;;;;;;0.10;0.10;;;;;;;10.02;71.76;102410.50;5095403;28;20040;-83
2022/01/27 09:49:15;;;;;;;1.13;1.10;;;;;;;10.01;71.58;102390.19;5090145;28;20040;-85
2022/01/27 09:51:45;;;;;;;0.10;0.10;;;;;;;10.21;71.26;102386.78;5092971;28;20039;-81
2022/01/27 09:54:13;;;;;;;2.10;2.00;;;;;;;10.22;71.16;102390.31;5090069;28;20118;-83
2022/01/27 09:56:40;;;;;;;1.75;0.63;;;;;;;10.21;71.22;102394.72;5078691;28;20036;-83
2022/01/27 09:59:08;;;;;;;0.70;0.70;;;;;;;10.29;70.98;102400.06;5084223;28;20032;-83
2022/01/27 10:01:35;;;;;;;1.05;1.05;;;;;;;10.24;71.18;102396.50;5088213;28;20353;-83
2022/01/27 10:04:05;;;;;;;0.10;0.10;;;;;;;10.27;70.92;102402.72;5090095;28;20036;-83
2022/01/27 10:06:33;;;;;;;0.75;0.75;;;;;;;10.36;70.61;102392.19;5089106;28;20026;-83
2022/01/27 10:09:24;;;;;;;5.70;2.22;;;;;;;10.36;70.73;102393.97;5089578;28;20504;-86
2022/01/27 10:11:52;;;;;;;0.57;0.57;;;;;;;10.37;70.51;102401.03;5088632;28;20506;-84
2022/01/27 10:17:18;;;;;;;6.88;1.23;;;;;;;10.44;70.57;102404.59;5072690;28;20421;-84
2022/01/27 10:19:53;;;;;;;0.10;0.10;;;;;;;10.42;70.75;102416.94;5060528;28;20025;-84
2022/01/27 10:22:19;;;;;;;0.10;0.10;;;;;;;10.43;70.86;102408.13;5061251;28;20029;-84
2022/01/27 10:24:45;;;;;;;0.10;0.10;;;;;;;10.49;70.42;102402.88;5055498;28;20438;-83
2022/01/27 10:33:12;;;;;;;0.20;0.20;;;;;;;10.48;70.11;102402.00;5085199;27;20414;-83
2022/01/27 10:35:38;;;;;;;0.10;0.10;;;;;;;10.61;69.99;102405.59;5067327;28;20476;-84
2022/01/27 10:38:08;;;;;;;0.00;0.00;;;;;;;10.58;70.04;102408.22;5080231;28;20028;-84
2022/01/27 10:40:38;;;;;;;0.00;0.00;;;;;;;10.62;70.01;102415.31;5089508;28;20480;-85
2022/01/27 10:43:22;;;;;;;0.10;0.10;;;;;;;10.63;69.69;102414.44;5090298;28;20038;-83
2022/01/27 10:46:10;;;;;;;2.40;2.30;;;;;;;10.75;69.67;102399.47;5090552;28;20484;-83
2022/01/27 10:48:51;;;;;;;0.88;0.88;;;;;;;10.68;69.73;102399.44;5086320;28;20115;-83
2022/01/27 10:51:24;;;;;;;0.55;0.55;;;;;;;10.65;69.57;102404.75;5065456;28;20054;-83
2022/01/27 10:56:39;;;;;;;1.80;1.73;;;;;;;10.73;69.46;102401.22;5071314;28;20512;-83
2022/01/27 10:59:11;;;;;;;0.10;0.10;;;;;;;10.68;70.00;102407.38;5067201;28;20108;-83
2022/01/27 11:01:39;;;;;;;0.10;0.10;;;;;;;10.68;70.02;102404.75;5058300;28;20393;-83
2022/01/27 11:04:09;;;;;;;0.10;0.10;;;;;;;10.73;70.03;102403.88;5055731;28;20029;-82
2022/01/27 11:06:36;;;;;;;0.10;0.10;;;;;;;10.75;70.01;102410.06;5050963;28;20038;-82
2022/01/27 11:09:08;;;;;;;0.10;0.10;;;;;;;10.67;70.06;102421.50;5057373;28;20166;-82
2022/01/27 11:11:36;;;;;;;0.63;0.63;;;;;;;10.69;69.96;102424.16;5067810;28;20035;-83
2022/01/27 11:14:04;;;;;;;0.10;0.10;;;;;;;10.84;69.75;102410.09;5069206;28;20050;-84
2022/01/27 11:16:36;;;;;;;0.63;0.63;;;;;;;10.83;69.75;102397.75;5069246;28;20036;-84
2022/01/27 11:19:56;;;;;;;0.50;0.50;;;;;;;10.87;69.58;102398.66;5069299;28;20098;-84
2022/01/27 11:21:58;;;;;;;0.10;0.10;;;;;;;10.91;69.79;102395.97;5061315;28;20112;-83
2022/01/27 11:24:36;;;;;;;0.43;0.32;;;;;;;11.03;69.02;102391.59;5039799;28;20041;-83
2022/01/27 11:27:06;;;;;;;1.33;1.30;;;;;;;11.05;69.05;102389.84;5029940;28;20108;-83
2022/01/27 11:29:39;;;;;;;0.10;0.10;;;;;;;11.00;69.47;102396.03;5034492;28;20021;-84
2022/01/27 11:32:20;;;;;;;0.10;0.10;;;;;;;11.16;68.82;102396.06;5064912;28;20029;-84
2022/01/27 11:34:48;;;;;;;0.08;0.08;;;;;;;11.05;69.20;102389.84;5053827;28;20052;-84
2022/01/27 11:37:18;;;;;;;0.08;0.08;;;;;;;11.12;69.19;102386.34;5053579;28;20033;-83
2022/01/27 11:39:49;;;;;;;0.08;0.08;;;;;;;11.11;69.10;102388.09;5049267;28;20020;-83
2022/01/27 11:42:20;;;;;;;0.05;0.05;;;;;;;11.15;69.39;102383.69;5063172;28;20029;-83
2022/01/27 11:44:48;;;;;;;1.83;0.47;;;;;;;11.11;69.00;102380.13;5038532;28;20061;-83
2022/01/27 11:47:18;;;;;;;1.13;1.13;;;;;;;11.21;69.32;102389.00;5029465;28;20044;-83
2022/01/27 11:50:06;;;;;;;1.65;0.85;;;;;;;11.25;68.67;102384.59;5035759;28;20542;-83
2022/01/27 11:52:46;;;;;;;0.10;0.10;;;;;;;11.29;68.80;102381.94;5028270;28;20057;-85
2022/01/27 11:58:23;;;;;;;0.38;0.38;;;;;;;11.33;68.70;102383.72;5089972;27;20418;-83
2022/01/27 12:09:35;;;;;;;0.10;0.10;;;;;;;11.57;67.83;102402.34;5103548;27;20424;-84
2022/01/27 12:12:11;;;;;;;2.28;1.38;;;;;;;11.61;67.68;102401.44;5087400;28;20028;-84
2022/01/27 12:17:21;;;;;;;0.20;0.20;;;;;;;11.60;67.41;102424.47;5063603;28;20457;-83
2022/01/27 12:19:56;;;;;;;1.63;0.50;;;;;;;11.64;67.30;102405.00;5029930;28;20069;-83
2022/01/27 12:22:27;;;;;;;0.03;0.03;;;;;;;11.53;67.63;102382.00;5031037;28;20033;-84
2022/01/27 12:27:41;;;;;;;0.10;0.10;;;;;;;11.71;67.09;102383.75;5069077;28;20445;-84
2022/01/27 12:30:10;;;;;;;0.28;0.20;;;;;;;11.64;67.56;102378.44;5063804;28;20479;-84
2022/01/27 12:32:36;;;;;;;0.05;0.05;;;;;;;11.74;66.95;102387.28;5053129;28;20603;-84
2022/01/27 12:35:08;;;;;;;1.60;1.50;;;;;;;11.81;66.91;102370.47;5029248;28;20032;-83
2022/01/27 12:37:37;;;;;;;0.20;0.20;;;;;;;11.79;66.80;102360.75;5029123;28;20396;-84
2022/01/27 12:40:07;;;;;;;0.10;0.10;;;;;;;11.90;66.96;102374.91;5029610;28;20022;-83
2022/01/27 12:42:36;;;;;;;0.10;0.10;;;;;;;12.04;66.33;102374.03;5031473;28;20030;-84
2022/01/27 12:45:12;;;;;;;0.10;0.10;;;;;;;12.08;66.18;102378.44;5039550;28;20036;-84
2022/01/27 12:47:48;;;;;;;0.20;0.20;;;;;;;12.03;66.31;102390.84;5044936;28;20676;-84
2022/01/27 12:50:18;;;;;;;0.10;0.10;;;;;;;12.02;66.28;102379.31;5039757;28;20381;-84